Time;durP1;ratioP1;P1;durP2;ratioP2;P2;SDS_P1;SDS_P2;PMS_P1;PMS_P2;Temp;Humidity;BMP_temperature;BMP_pressure;BME280_temperature;BME280_humidity;BME280_pressure;Samples;Min_cycle;Max_cycle;Signal;HPM_P1;HPM_P2
2021/06/06 00:01:44;;;;;;;11.57;4.90;;;;;;;20.08;50.72;100462.89;1799569;77;22214;-55
2021/06/06 00:04:21;;;;;;;7.78;4.85;;;;;;;20.09;50.64;100460.58;1808837;77;22199;-55
2021/06/06 00:06:55;;;;;;;10.75;4.30;;;;;;;20.13;50.71;100469.31;1831715;77;22186;-55
2021/06/06 00:09:34;;;;;;;8.43;4.40;;;;;;;20.15;50.71;100462.09;1791379;77;22679;-55
2021/06/06 00:12:08;;;;;;;6.22;3.80;;;;;;;20.17;50.76;100469.07;1834510;77;22633;-55
2021/06/06 00:14:55;;;;;;;8.20;3.98;;;;;;;20.18;50.82;100472.14;1760777;81;21123;-57
2021/06/06 00:17:34;;;;;;;10.40;4.40;;;;;;;20.19;51.09;100471.20;1827421;77;22199;-55
2021/06/06 00:20:10;;;;;;;6.50;4.10;;;;;;;20.19;51.31;100471.69;1827443;77;22215;-55
2021/06/06 00:22:56;;;;;;;5.60;3.98;;;;;;;20.14;51.36;100476.39;1789070;80;21203;-56
2021/06/06 00:25:35;;;;;;;5.90;4.03;;;;;;;20.14;51.63;100469.22;1820838;77;22159;-55
2021/06/06 00:28:09;;;;;;;7.42;3.80;;;;;;;20.15;51.64;100466.09;1795130;77;22221;-55
2021/06/06 00:30:42;;;;;;;6.45;3.80;;;;;;;20.12;51.87;100464.43;1852812;77;22191;-55
2021/06/06 00:33:30;;;;;;;6.25;3.80;;;;;;;19.96;52.13;100466.17;1755028;81;21188;-57
2021/06/06 00:36:08;;;;;;;5.92;4.08;;;;;;;19.84;52.19;100460.45;1827745;77;22214;-55
2021/06/06 00:38:41;;;;;;;5.80;3.65;;;;;;;19.80;52.35;100454.88;1802910;77;22245;-56
2021/06/06 00:41:15;;;;;;;7.75;4.12;;;;;;;19.84;52.27;100452.93;1834473;77;22204;-56
2021/06/06 00:43:48;;;;;;;6.08;3.58;;;;;;;19.78;52.42;100459.91;1813929;77;22183;-55
2021/06/06 00:46:37;;;;;;;6.35;3.22;;;;;;;19.77;52.39;100471.05;1740666;81;21225;-55
2021/06/06 00:49:10;;;;;;;11.15;4.08;;;;;;;19.82;52.40;100473.51;1810418;77;22202;-56
2021/06/06 00:51:54;;;;;;;7.37;3.40;;;;;;;19.82;52.62;100478.85;1834462;77;22204;-55
2021/06/06 00:54:32;;;;;;;5.58;3.70;;;;;;;19.78;52.94;100478.12;1782161;77;22179;-55
2021/06/06 00:57:19;;;;;;;8.63;3.25;;;;;;;19.70;53.18;100475.84;1833865;77;22204;-55
2021/06/06 01:00:25;;;;;;;5.62;3.35;;;;;;;19.64;53.48;100479.28;1834552;77;22191;-55
2021/06/06 01:02:59;;;;;;;4.80;2.90;;;;;;;19.57;53.81;100474.23;1826449;77;22210;-56
2021/06/06 01:05:47;;;;;;;7.08;3.67;;;;;;;19.53;54.04;100471.77;1819460;77;22214;-55
2021/06/06 01:08:20;;;;;;;5.85;3.33;;;;;;;19.47;54.20;100467.13;1821904;77;22198;-55
2021/06/06 01:10:59;;;;;;;5.83;3.40;;;;;;;19.44;54.33;100463.27;1834466;77;22592;-55
2021/06/06 01:14:02;;;;;;;8.60;3.85;;;;;;;19.39;54.46;100464.44;1763227;80;21103;-56
2021/06/06 01:16:43;;;;;;;5.58;3.80;;;;;;;19.41;54.50;100461.23;1834504;77;22196;-55
2021/06/06 01:19:33;;;;;;;6.03;3.60;;;;;;;19.40;54.58;100466.17;1809290;77;22191;-55
2021/06/06 01:22:51;;;;;;;5.17;3.60;;;;;;;19.28;54.79;100474.30;1831994;77;22165;-55
2021/06/06 01:25:38;;;;;;;5.05;3.60;;;;;;;19.17;54.96;100481.48;1820725;77;22163;-55
2021/06/06 01:28:22;;;;;;;5.00;3.35;;;;;;;19.12;55.24;100480.82;1823801;77;22234;-56
2021/06/06 01:30:57;;;;;;;4.72;3.55;;;;;;;19.09;55.32;100478.30;1842591;77;22156;-55
2021/06/06 01:33:51;;;;;;;7.47;3.40;;;;;;;19.06;55.48;100478.44;1775485;80;21185;-56
2021/06/06 01:36:33;;;;;;;9.43;3.30;;;;;;;19.11;55.65;100470.61;1834493;77;22188;-55
2021/06/06 01:39:11;;;;;;;5.40;3.45;;;;;;;19.11;55.89;100473.27;1809839;77;22230;-55
2021/06/06 01:41:48;;;;;;;5.15;3.50;;;;;;;19.09;56.13;100467.14;1809006;77;22206;-55
2021/06/06 01:44:26;;;;;;;4.80;3.30;;;;;;;19.10;56.23;100470.69;1807921;77;22203;-55
2021/06/06 01:47:04;;;;;;;6.25;4.60;;;;;;;19.11;56.47;100471.09;1834506;77;22576;-55
2021/06/06 01:49:57;;;;;;;6.00;3.60;;;;;;;19.04;56.70;100469.64;1699760;83;21133;-56
2021/06/06 01:52:33;;;;;;;5.17;4.17;;;;;;;19.01;57.12;100465.30;1832923;77;22172;-55
2021/06/06 01:55:12;;;;;;;5.83;4.03;;;;;;;18.96;57.54;100469.52;1834394;77;22204;-55
2021/06/06 01:57:45;;;;;;;7.67;4.30;;;;;;;18.92;58.07;100475.89;1844531;77;22241;-55
2021/06/06 02:00:27;;;;;;;8.33;4.92;;;;;;;18.85;58.45;100475.77;1818519;77;22140;-57
2021/06/06 02:03:02;;;;;;;8.00;4.55;;;;;;;18.81;59.01;100472.84;1820806;77;22235;-57
2021/06/06 02:05:35;;;;;;;7.08;3.85;;;;;;;18.76;59.42;100467.73;1834419;77;22176;-59
2021/06/06 02:08:22;;;;;;;8.20;3.87;;;;;;;18.67;59.71;100473.02;1777588;80;21144;-61
2021/06/06 02:11:00;;;;;;;6.33;4.30;;;;;;;18.66;60.01;100456.63;1852791;77;22634;-60
2021/06/06 02:13:43;;;;;;;5.20;3.87;;;;;;;18.62;60.19;100465.69;1836972;77;22205;-60
2021/06/06 02:16:21;;;;;;;6.90;3.60;;;;;;;18.56;60.52;100468.63;1824116;77;22613;-59
2021/06/06 02:18:54;;;;;;;5.83;3.62;;;;;;;18.48;60.83;100470.75;1803107;77;22228;-60
2021/06/06 02:21:28;;;;;;;5.37;3.75;;;;;;;18.42;61.17;100473.23;1834447;77;22183;-59
2021/06/06 02:24:04;;;;;;;4.58;3.42;;;;;;;18.38;61.28;100476.48;1830420;77;22233;-59
2021/06/06 02:26:47;;;;;;;7.45;4.55;;;;;;;18.38;61.24;100474.30;1808098;77;28106;-59
2021/06/06 02:29:53;;;;;;;7.08;3.67;;;;;;;18.45;61.33;100485.55;1808256;77;22199;-59
2021/06/06 02:32:55;;;;;;;8.38;4.28;;;;;;;18.47;61.17;100478.34;1818366;77;28013;-59
2021/06/06 02:35:51;;;;;;;5.25;2.87;;;;;;;18.52;60.96;100480.35;1827040;77;22566;-59
2021/06/06 02:38:42;;;;;;;6.00;3.92;;;;;;;18.56;60.61;100481.95;1807615;77;28116;-59
2021/06/06 02:41:49;;;;;;;6.37;3.00;;;;;;;18.61;60.54;100481.73;1833649;77;22175;-59
2021/06/06 02:44:42;;;;;;;4.25;2.50;;;;;;;18.63;60.36;100475.87;1799693;77;22222;-59
2021/06/06 02:47:34;;;;;;;4.95;3.08;;;;;;;18.62;60.28;100487.02;1754543;81;21194;-60
2021/06/06 02:50:19;;;;;;;4.30;2.83;;;;;;;18.65;60.22;100471.34;1834486;77;22160;-59
2021/06/06 02:53:00;;;;;;;3.90;2.60;;;;;;;18.67;60.13;100478.34;1823984;77;22790;-58
2021/06/06 02:55:36;;;;;;;5.83;2.65;;;;;;;18.63;60.12;100469.20;1826794;77;22175;-58
2021/06/06 02:58:25;;;;;;;3.25;2.50;;;;;;;18.68;60.01;100457.42;1802223;77;22235;-58
2021/06/06 03:01:24;;;;;;;5.03;2.52;;;;;;;18.63;60.05;100461.20;1833081;77;22188;-58
2021/06/06 03:04:00;;;;;;;3.87;2.85;;;;;;;18.58;60.29;100458.77;1797664;77;22259;-58
2021/06/06 03:06:43;;;;;;;5.17;2.90;;;;;;;18.60;60.30;100452.02;1791428;77;28103;-58
2021/06/06 03:09:19;;;;;;;6.83;2.85;;;;;;;18.71;60.09;100455.07;1809220;77;22234;-58
2021/06/06 03:11:54;;;;;;;4.20;2.83;;;;;;;18.69;60.17;100454.27;1804808;77;38303;-58
2021/06/06 03:14:27;;;;;;;3.85;2.87;;;;;;;18.84;59.64;100451.38;1824484;77;22205;-58
2021/06/06 03:17:29;;;;;;;3.77;2.50;;;;;;;18.84;59.54;100449.59;1746738;81;21590;-58
2021/06/06 03:20:08;;;;;;;3.30;2.33;;;;;;;18.91;59.59;100447.98;1823765;77;22184;-58
2021/06/06 03:22:42;;;;;;;3.60;2.40;;;;;;;18.91;59.38;100447.98;1823749;77;22151;-58
2021/06/06 03:25:30;;;;;;;6.55;2.47;;;;;;;18.90;59.32;100448.43;1830566;77;22162;-58
2021/06/06 03:28:05;;;;;;;4.55;2.50;;;;;;;18.89;59.29;100449.36;1825503;77;22234;-57
2021/06/06 03:30:55;;;;;;;5.08;2.47;;;;;;;18.80;59.31;100458.66;1744671;81;21293;-58
2021/06/06 03:33:49;;;;;;;3.40;2.47;;;;;;;18.69;59.60;100451.61;1819969;77;22191;-58
2021/06/06 03:36:30;;;;;;;4.20;2.50;;;;;;;18.65;59.86;100452.23;1790944;77;22170;-58
2021/06/06 03:39:28;;;;;;;4.10;2.70;;;;;;;18.64;59.96;100438.50;1819088;77;22220;-58
2021/06/06 03:42:11;;;;;;;6.28;3.05;;;;;;;18.66;60.19;100448.62;1834492;77;22160;-58
2021/06/06 03:44:59;;;;;;;6.08;2.95;;;;;;;18.64;60.13;100445.61;1712977;83;21143;-59
2021/06/06 03:47:32;;;;;;;3.80;2.45;;;;;;;18.61;60.34;100447.97;1825336;77;22187;-58
2021/06/06 03:50:09;;;;;;;5.60;3.02;;;;;;;18.53;60.71;100442.98;1852763;77;22167;-58
2021/06/06 03:52:56;;;;;;;5.70;3.15;;;;;;;18.45;60.80;100451.78;1817667;78;21200;-58
2021/06/06 03:55:29;;;;;;;5.17;3.05;;;;;;;18.44;61.04;100448.72;1834408;77;22572;-58
2021/06/06 03:58:03;;;;;;;4.03;2.80;;;;;;;18.41;61.30;100443.52;1801013;77;22236;-57
2021/06/06 04:00:41;;;;;;;4.28;2.77;;;;;;;18.46;61.44;100445.97;1827387;77;22207;-57
2021/06/06 04:03:30;;;;;;;3.30;2.45;;;;;;;18.50;61.42;100448.90;1769584;80;21159;-58
2021/06/06 04:06:04;;;;;;;3.67;2.30;;;;;;;18.59;61.27;100439.17;1823829;77;22175;-57
2021/06/06 04:08:38;;;;;;;4.85;2.67;;;;;;;18.64;61.26;100440.28;1809347;77;22640;-57
2021/06/06 04:11:24;;;;;;;5.55;3.10;;;;;;;18.66;61.15;100438.41;1768758;80;21589;-58
2021/06/06 04:13:57;;;;;;;4.45;2.45;;;;;;;18.78;61.50;100435.65;1795176;77;22187;-58
2021/06/06 04:16:31;;;;;;;5.05;3.77;;;;;;;18.85;61.41;100429.98;1821088;77;22628;-57
2021/06/06 04:19:04;;;;;;;5.15;2.70;;;;;;;18.92;61.25;100430.55;1815531;77;22218;-58
2021/06/06 04:21:38;;;;;;;4.20;2.02;;;;;;;18.99;60.94;100433.37;1834166;77;22201;-57
2021/06/06 04:24:11;;;;;;;3.60;2.17;;;;;;;19.01;60.73;100430.62;1794532;77;22187;-57
2021/06/06 04:26:44;;;;;;;3.42;2.10;;;;;;;19.13;60.39;100422.53;1827877;77;22209;-57
2021/06/06 04:29:18;;;;;;;5.33;1.98;;;;;;;19.18;60.34;100427.19;1805775;77;22186;-57
2021/06/06 04:32:06;;;;;;;3.52;2.30;;;;;;;19.17;60.47;100426.30;1776301;80;21527;-59
2021/06/06 04:34:41;;;;;;;4.03;2.05;;;;;;;18.96;61.14;100418.84;1807859;77;22219;-57
2021/06/06 04:37:15;;;;;;;3.98;1.95;;;;;;;18.97;61.25;100421.06;1833076;77;22144;-58
2021/06/06 04:39:48;;;;;;;2.75;1.82;;;;;;;18.94;60.95;100422.50;1794545;77;22249;-57
2021/06/06 04:42:21;;;;;;;4.40;2.08;;;;;;;18.97;60.86;100418.39;1825074;77;22194;-57
2021/06/06 04:45:12;;;;;;;3.40;2.40;;;;;;;19.04;60.74;100427.81;1761386;81;21127;-58
2021/06/06 04:47:45;;;;;;;5.53;2.85;;;;;;;19.09;60.93;100424.95;1832202;77;28565;-56
2021/06/06 04:50:18;;;;;;;2.70;1.90;;;;;;;19.18;60.83;100415.18;1844710;78;22207;-57
2021/06/06 04:53:06;;;;;;;4.78;1.75;;;;;;;19.12;60.93;100424.80;1791868;79;21160;-58
2021/06/06 04:55:39;;;;;;;3.83;2.00;;;;;;;19.17;60.94;100425.45;1834353;77;22576;-57
2021/06/06 04:58:15;;;;;;;2.65;1.85;;;;;;;19.24;60.73;100420.19;1841598;77;22229;-57
2021/06/06 05:00:48;;;;;;;3.08;2.12;;;;;;;19.30;60.61;100423.05;1833305;77;28442;-56
2021/06/06 05:03:22;;;;;;;2.60;1.70;;;;;;;19.35;60.47;100422.37;1813939;77;22205;-57
2021/06/06 05:05:55;;;;;;;2.52;1.52;;;;;;;19.39;60.48;100422.62;1834439;77;22631;-56
2021/06/06 05:08:43;;;;;;;2.62;1.87;;;;;;;19.39;60.43;100420.41;1775762;80;21207;-58
2021/06/06 05:11:16;;;;;;;5.15;2.08;;;;;;;19.46;60.37;100412.02;1822638;77;22161;-57
2021/06/06 05:13:49;;;;;;;3.17;1.85;;;;;;;19.49;60.03;100415.02;1815125;77;22678;-57
2021/06/06 05:16:23;;;;;;;3.02;1.90;;;;;;;19.50;59.82;100421.20;1852745;77;22202;-57
2021/06/06 05:18:56;;;;;;;3.20;1.75;;;;;;;19.49;59.48;100424.36;1829689;77;22233;-57
2021/06/06 05:21:29;;;;;;;3.77;1.75;;;;;;;19.50;59.70;100437.22;1807339;77;22207;-57
2021/06/06 05:24:04;;;;;;;2.52;1.62;;;;;;;19.50;59.85;100438.09;1830097;77;22201;-57
2021/06/06 05:26:37;;;;;;;2.85;1.80;;;;;;;19.57;60.28;100453.34;1823712;77;22579;-57
2021/06/06 05:29:10;;;;;;;2.92;1.90;;;;;;;19.62;60.91;100453.98;1800479;77;22281;-57
2021/06/06 05:31:44;;;;;;;4.72;2.20;;;;;;;19.69;61.15;100442.06;1831533;77;22619;-56
2021/06/06 05:34:17;;;;;;;3.62;2.00;;;;;;;19.60;61.49;100434.50;1808926;77;22621;-56
2021/06/06 05:36:51;;;;;;;3.77;1.90;;;;;;;19.68;61.79;100437.66;1813588;77;22199;-56
2021/06/06 05:39:24;;;;;;;5.03;2.05;;;;;;;19.78;61.62;100444.73;1812185;77;22186;-56
2021/06/06 05:41:57;;;;;;;4.28;2.17;;;;;;;20.02;61.30;100449.84;1834543;77;22199;-56
2021/06/06 05:44:44;;;;;;;4.67;2.20;;;;;;;20.06;61.36;100449.59;1761766;80;21152;-57
2021/06/06 05:47:17;;;;;;;3.80;2.00;;;;;;;19.70;62.95;100440.23;1835574;77;22198;-56
2021/06/06 05:49:50;;;;;;;3.20;1.87;;;;;;;19.63;63.51;100438.84;1929703;74;22128;-57
2021/06/06 05:52:26;;;;;;;2.83;2.00;;;;;;;20.27;62.01;100430.73;1834508;77;22200;-56
2021/06/06 05:55:14;;;;;;;2.05;1.50;;;;;;;20.36;61.29;100436.91;1693681;83;21138;-56
2021/06/06 05:57:48;;;;;;;3.02;1.75;;;;;;;20.53;61.56;100427.14;1822653;77;22230;-56
2021/06/06 06:00:27;;;;;;;2.90;1.95;;;;;;;20.62;61.34;100428.00;1834438;77;22567;-56
2021/06/06 06:03:13;;;;;;;5.20;2.02;;;;;;;20.70;61.33;100429.40;1778921;80;21170;-57
2021/06/06 06:05:46;;;;;;;5.22;2.90;;;;;;;20.86;60.95;100430.30;1819128;77;22202;-56
2021/06/06 06:08:30;;;;;;;4.35;2.20;;;;;;;21.02;60.82;100430.81;1822019;77;22195;-56
2021/06/06 06:11:08;;;;;;;2.67;1.80;;;;;;;21.12;60.15;100436.50;1834440;77;22611;-56
2021/06/06 06:13:42;;;;;;;4.37;2.50;;;;;;;21.18;59.35;100436.17;1836251;77;22243;-56
2021/06/06 06:16:16;;;;;;;5.28;2.55;;;;;;;21.25;59.49;100434.39;1822537;77;22187;-56
2021/06/06 06:18:50;;;;;;;4.40;2.62;;;;;;;21.31;59.46;100433.20;1833099;77;22198;-56
2021/06/06 06:21:37;;;;;;;3.70;2.37;;;;;;;20.85;60.05;100435.27;1794380;80;21106;-56
2021/06/06 06:24:10;;;;;;;3.12;2.17;;;;;;;21.34;59.44;100434.83;1789892;77;22644;-56
2021/06/06 06:26:44;;;;;;;4.30;2.02;;;;;;;21.53;58.66;100434.64;1834515;77;22200;-55
2021/06/06 06:29:31;;;;;;;4.28;2.40;;;;;;;21.57;57.86;100433.51;1723643;82;21181;-56
2021/06/06 06:32:11;;;;;;;3.50;2.50;;;;;;;21.70;58.35;100426.99;1844851;77;22239;-55
2021/06/06 06:34:44;;;;;;;4.85;2.40;;;;;;;21.76;57.68;100419.09;1820601;77;22229;-55
2021/06/06 06:37:18;;;;;;;3.08;2.37;;;;;;;21.80;57.41;100421.98;1824442;77;22209;-55
2021/06/06 06:39:52;;;;;;;6.33;2.70;;;;;;;21.83;57.25;100423.98;1830948;77;22166;-55
2021/06/06 06:42:25;;;;;;;5.28;3.08;;;;;;;21.88;57.61;100418.34;1829616;77;22165;-55
2021/06/06 06:44:58;;;;;;;6.05;3.15;;;;;;;21.97;57.70;100422.32;1852817;77;22203;-55
2021/06/06 06:47:32;;;;;;;7.35;4.62;;;;;;;22.05;57.40;100420.05;1849874;77;22203;-55
2021/06/06 06:50:07;;;;;;;7.10;4.55;;;;;;;22.14;57.85;100415.45;1851783;77;22636;-55
2021/06/06 06:52:40;;;;;;;4.22;2.80;;;;;;;22.26;57.00;100417.02;1842704;77;22147;-55
2021/06/06 06:55:17;;;;;;;4.50;2.67;;;;;;;22.31;56.54;100414.91;1842898;77;22178;-55
2021/06/06 06:57:50;;;;;;;4.05;2.62;;;;;;;22.35;56.31;100419.59;1832388;77;22210;-63
2021/06/06 07:00:38;;;;;;;3.62;2.30;;;;;;;22.41;56.42;100418.77;1823573;77;22619;-63
2021/06/06 07:03:15;;;;;;;4.08;3.00;;;;;;;22.50;55.83;100418.70;1842110;77;22194;-62
2021/06/06 07:05:48;;;;;;;5.85;2.50;;;;;;;22.57;56.17;100414.68;1832666;77;22195;-62
2021/06/06 07:08:25;;;;;;;5.67;2.47;;;;;;;22.67;56.53;100416.30;1820282;77;22610;-63
2021/06/06 07:10:58;;;;;;;3.70;2.60;;;;;;;22.77;56.35;100422.44;1822510;77;22194;-62
2021/06/06 07:13:32;;;;;;;4.20;2.55;;;;;;;22.83;55.90;100422.90;1819222;77;22202;-63
2021/06/06 07:16:09;;;;;;;4.17;2.08;;;;;;;22.92;55.63;100415.23;1817639;77;22542;-62
2021/06/06 07:18:42;;;;;;;4.15;2.52;;;;;;;22.98;55.61;100410.32;1811405;77;22574;-62
2021/06/06 07:21:28;;;;;;;2.50;2.05;;;;;;;22.98;55.25;100413.01;1733959;81;21135;-62
2021/06/06 07:24:02;;;;;;;3.42;2.05;;;;;;;23.05;54.66;100413.50;1806519;77;22256;-62
2021/06/06 07:26:40;;;;;;;5.05;2.40;;;;;;;23.11;54.77;100409.08;1834410;77;22160;-62
2021/06/06 07:29:14;;;;;;;3.85;2.10;;;;;;;23.17;53.94;100412.71;1809890;77;22226;-61
2021/06/06 07:31:49;;;;;;;2.62;2.00;;;;;;;23.22;54.12;100414.20;1845701;77;22179;-62
2021/06/06 07:34:25;;;;;;;4.30;2.00;;;;;;;23.31;54.11;100411.84;1830158;77;22218;-62
2021/06/06 07:37:12;;;;;;;2.83;1.92;;;;;;;23.40;53.46;100412.20;1757853;80;21114;-63
2021/06/06 07:39:45;;;;;;;4.08;2.15;;;;;;;23.54;51.75;100405.91;1814622;77;22229;-62
2021/06/06 07:42:19;;;;;;;4.92;2.17;;;;;;;23.60;51.49;100411.73;1827619;77;22191;-61
2021/06/06 07:44:53;;;;;;;5.45;1.75;;;;;;;23.72;51.91;100406.00;1834225;77;22188;-61
2021/06/06 07:47:26;;;;;;;4.47;2.20;;;;;;;23.90;51.37;100401.20;1833865;77;22204;-61
2021/06/06 07:50:00;;;;;;;2.92;1.67;;;;;;;24.10;50.59;100408.43;1821558;77;23292;-62
2021/06/06 07:52:35;;;;;;;2.60;1.70;;;;;;;24.30;50.37;100403.02;1839055;77;22190;-60
2021/06/06 07:55:11;;;;;;;4.42;1.77;;;;;;;24.53;50.11;100407.24;1834506;77;22191;-55
2021/06/06 07:57:46;;;;;;;3.90;2.17;;;;;;;24.76;49.05;100405.63;1802043;77;29052;-54
2021/06/06 08:00:25;;;;;;;3.25;2.00;;;;;;;24.95;48.77;100401.12;1798644;77;28094;-54
2021/06/06 08:02:59;;;;;;;3.20;1.80;;;;;;;25.12;47.90;100407.13;1823583;77;22207;-57
2021/06/06 08:05:34;;;;;;;2.83;1.85;;;;;;;25.26;46.48;100407.44;1829010;77;22199;-56
2021/06/06 08:08:10;;;;;;;3.62;2.02;;;;;;;25.31;46.11;100405.77;1808945;77;38385;-56
2021/06/06 08:10:49;;;;;;;7.12;2.10;;;;;;;25.29;46.21;100413.95;1821008;77;22174;-54
2021/06/06 08:13:22;;;;;;;5.55;1.67;;;;;;;25.37;46.16;100410.71;1821399;77;22653;-55
2021/06/06 08:15:56;;;;;;;2.45;1.47;;;;;;;25.48;46.02;100413.97;1852662;77;22183;-55
2021/06/06 08:18:36;;;;;;;4.15;1.80;;;;;;;25.58;45.12;100410.97;1812431;77;22236;-55
2021/06/06 08:21:18;;;;;;;2.98;1.40;;;;;;;25.65;44.54;100408.16;1819082;77;22131;-55
2021/06/06 08:23:52;;;;;;;3.98;2.17;;;;;;;25.76;43.92;100404.67;1812845;77;22214;-55
2021/06/06 08:26:25;;;;;;;2.72;2.30;;;;;;;25.84;43.39;100405.42;1834441;77;22188;-55
2021/06/06 08:28:59;;;;;;;3.42;2.08;;;;;;;25.91;43.78;100403.98;1818780;77;22249;-55
2021/06/06 08:31:34;;;;;;;3.33;1.77;;;;;;;26.04;44.47;100406.59;1834381;77;22164;-55
2021/06/06 08:34:09;;;;;;;3.70;1.80;;;;;;;26.13;43.33;100405.91;1806436;77;22203;-55
2021/06/06 08:36:45;;;;;;;2.60;1.95;;;;;;;26.12;43.46;100404.16;1852766;77;22678;-55
2021/06/06 08:39:22;;;;;;;2.12;1.50;;;;;;;26.15;43.34;100407.13;1802283;77;22222;-55
2021/06/06 08:42:13;;;;;;;5.10;1.77;;;;;;;26.10;42.38;100411.51;1825100;77;22607;-56
2021/06/06 08:45:08;;;;;;;2.42;1.77;;;;;;;26.02;42.42;100415.78;1802258;77;22252;-57
2021/06/06 08:47:41;;;;;;;2.37;1.50;;;;;;;25.96;42.83;100411.23;1814963;77;22210;-56
2021/06/06 08:50:19;;;;;;;4.67;1.87;;;;;;;25.90;42.76;100413.05;1841947;77;22187;-55
2021/06/06 08:53:10;;;;;;;5.70;2.20;;;;;;;25.82;42.31;100412.30;1846281;77;22229;-55
2021/06/06 08:56:09;;;;;;;4.65;2.02;;;;;;;25.80;42.66;100416.06;1832045;77;22167;-56
2021/06/06 08:59:01;;;;;;;3.50;1.57;;;;;;;25.69;42.38;100418.23;1799309;77;22267;-55
2021/06/06 09:01:49;;;;;;;2.17;1.70;;;;;;;25.58;42.64;100424.45;1852793;77;22187;-55
2021/06/06 09:04:31;;;;;;;3.55;1.82;;;;;;;25.57;42.56;100421.84;1801659;77;22179;-55
2021/06/06 09:07:15;;;;;;;4.45;2.12;;;;;;;25.60;43.25;100407.67;1826472;77;22148;-54
2021/06/06 09:09:51;;;;;;;7.17;1.90;;;;;;;25.65;43.16;100408.66;1818099;77;22616;-55
2021/06/06 09:12:25;;;;;;;2.50;1.90;;;;;;;25.69;43.12;100411.50;1837007;77;28428;-55
2021/06/06 09:15:00;;;;;;;2.77;1.52;;;;;;;25.77;42.69;100404.17;1840113;77;22187;-56
2021/06/06 09:17:43;;;;;;;2.25;1.67;;;;;;;25.86;41.74;100406.64;1832417;77;22208;-56
2021/06/06 09:20:42;;;;;;;3.30;1.50;;;;;;;25.94;42.09;100406.45;1834458;77;22136;-55
2021/06/06 09:23:31;;;;;;;2.02;1.50;;;;;;;26.00;42.17;100406.45;1815966;77;22206;-56
2021/06/06 09:26:25;;;;;;;3.08;1.85;;;;;;;25.94;41.66;100401.05;1827541;77;22175;-55
2021/06/06 09:29:24;;;;;;;2.62;1.15;;;;;;;26.03;41.86;100408.91;1827344;77;22225;-55
2021/06/06 09:32:15;;;;;;;2.98;1.57;;;;;;;26.13;41.09;100407.73;1832902;77;22671;-56
2021/06/06 09:35:11;;;;;;;2.08;1.32;;;;;;;26.11;41.52;100403.78;1788668;77;22217;-56
2021/06/06 09:37:50;;;;;;;2.37;1.17;;;;;;;26.31;41.37;100405.94;1848063;77;22256;-56
2021/06/06 09:40:38;;;;;;;2.65;1.47;;;;;;;26.50;40.70;100408.88;1832912;77;23276;-56
2021/06/06 09:43:32;;;;;;;2.75;1.27;;;;;;;26.61;40.72;100399.95;1813899;77;22241;-56
2021/06/06 09:46:15;;;;;;;5.53;1.57;;;;;;;26.56;40.73;100396.25;1834428;77;22168;-56
2021/06/06 09:48:49;;;;;;;4.20;1.50;;;;;;;26.43;40.91;100409.03;1815484;77;22586;-56
2021/06/06 09:51:29;;;;;;;4.10;1.45;;;;;;;26.39;40.86;100405.70;1826591;77;22135;-56
2021/06/06 09:54:31;;;;;;;2.80;1.42;;;;;;;26.35;41.10;100405.56;1761796;80;21196;-56
2021/06/06 09:57:09;;;;;;;3.35;1.42;;;;;;;26.42;41.17;100400.56;1826831;77;22623;-56
2021/06/06 09:59:43;;;;;;;3.20;1.70;;;;;;;26.39;40.92;100402.15;1814754;77;22223;-56
2021/06/06 10:02:30;;;;;;;1.98;1.27;;;;;;;26.39;40.62;100402.15;1812819;77;22550;-56
2021/06/06 10:05:37;;;;;;;2.85;1.40;;;;;;;26.50;40.98;100389.99;1834400;77;22161;-56
2021/06/06 10:08:28;;;;;;;3.35;1.37;;;;;;;26.57;41.53;100390.38;1824106;77;22665;-56
2021/06/06 10:11:15;;;;;;;2.27;1.45;;;;;;;26.54;41.01;100388.77;1826339;77;22595;-56
2021/06/06 10:13:49;;;;;;;3.85;1.60;;;;;;;26.63;42.05;100387.67;1815732;77;22618;-56
2021/06/06 10:16:36;;;;;;;2.67;1.40;;;;;;;26.85;40.32;100385.00;1828295;77;22575;-55
2021/06/06 10:19:29;;;;;;;3.42;1.40;;;;;;;27.09;40.66;100378.56;1821811;77;22201;-56
2021/06/06 10:22:14;;;;;;;2.72;1.37;;;;;;;27.42;39.74;100374.55;1834457;77;22160;-55
2021/06/06 10:25:04;;;;;;;2.05;1.30;;;;;;;27.67;38.35;100372.02;1819833;77;22190;-55
2021/06/06 10:27:43;;;;;;;3.40;1.50;;;;;;;27.73;38.23;100368.80;1839799;77;22145;-56
2021/06/06 10:30:30;;;;;;;3.92;1.35;;;;;;;27.82;38.38;100368.49;1799390;77;22656;-56
2021/06/06 10:33:44;;;;;;;3.58;1.30;;;;;;;27.93;37.84;100364.02;1815186;77;22211;-56
2021/06/06 10:36:20;;;;;;;2.72;1.60;;;;;;;27.93;38.11;100354.55;1822535;77;22195;-55
2021/06/06 10:38:54;;;;;;;3.45;1.87;;;;;;;28.06;37.91;100349.77;1786100;77;28126;-55
2021/06/06 10:42:08;;;;;;;2.10;1.50;;;;;;;28.05;37.83;100344.88;1834464;77;22635;-56
2021/06/06 10:45:11;;;;;;;3.05;1.55;;;;;;;27.99;37.21;100346.75;1821221;77;22237;-55
2021/06/06 10:48:11;;;;;;;3.05;1.45;;;;;;;27.85;36.54;100351.12;1798935;77;22270;-55
2021/06/06 10:50:46;;;;;;;2.40;1.55;;;;;;;27.81;36.79;100346.50;1808442;77;22203;-55
2021/06/06 10:53:27;;;;;;;3.80;2.00;;;;;;;27.66;37.40;100343.27;1822189;77;22194;-55
2021/06/06 10:56:14;;;;;;;3.12;1.50;;;;;;;27.44;37.54;100338.28;1808425;77;22196;-55
2021/06/06 10:59:03;;;;;;;1.70;1.30;;;;;;;27.16;38.33;100347.84;1815589;77;22222;-55
2021/06/06 11:01:48;;;;;;;6.42;1.40;;;;;;;27.02;38.09;100344.94;1832993;77;22160;-54
2021/06/06 11:04:27;;;;;;;2.87;1.47;;;;;;;26.88;38.20;100342.54;1789839;77;22246;-55
2021/06/06 11:07:15;;;;;;;2.10;1.45;;;;;;;26.84;38.70;100335.16;1821235;77;22186;-55
2021/06/06 11:10:02;;;;;;;4.37;1.50;;;;;;;26.98;39.22;100340.30;1793804;77;22205;-55
2021/06/06 11:12:53;;;;;;;1.70;1.20;;;;;;;27.34;39.61;100335.14;1776846;80;21142;-56
2021/06/06 11:15:34;;;;;;;3.92;2.05;;;;;;;27.76;37.73;100321.70;1819521;77;22634;-55
2021/06/06 11:18:20;;;;;;;4.30;1.70;;;;;;;27.94;37.37;100320.59;1824617;77;22218;-55
2021/06/06 11:21:01;;;;;;;5.05;2.17;;;;;;;28.61;36.94;100306.67;1818843;77;27953;-55
2021/06/06 11:23:57;;;;;;;3.98;1.70;;;;;;;28.67;36.92;100312.89;1814055;77;22178;-56
2021/06/06 11:26:37;;;;;;;6.20;2.00;;;;;;;29.06;36.10;100306.73;1834429;77;22203;-55
2021/06/06 11:29:15;;;;;;;3.15;2.00;;;;;;;29.45;34.46;100308.12;1828208;77;22194;-55
2021/06/06 11:32:45;;;;;;;4.80;1.77;;;;;;;29.66;34.15;100310.66;1723946;83;21127;-56
2021/06/06 11:35:41;;;;;;;2.37;1.50;;;;;;;30.01;33.71;100304.75;1826366;77;22203;-56
2021/06/06 11:38:42;;;;;;;5.00;1.98;;;;;;;30.07;33.85;100296.03;1823098;77;22234;-55
2021/06/06 11:41:34;;;;;;;1.95;1.30;;;;;;;30.10;33.58;100298.45;1826229;77;22147;-55
2021/06/06 11:44:31;;;;;;;2.70;1.50;;;;;;;30.18;32.97;100286.84;1810400;77;22203;-55
2021/06/06 11:47:26;;;;;;;2.17;1.47;;;;;;;30.42;33.91;100287.66;1852780;77;22155;-56
2021/06/06 11:50:12;;;;;;;3.45;1.85;;;;;;;30.41;33.29;100280.03;1800186;77;27980;-56
2021/06/06 11:52:49;;;;;;;3.80;1.70;;;;;;;30.54;32.73;100276.08;1812175;77;28104;-57
2021/06/06 11:55:42;;;;;;;3.25;1.50;;;;;;;30.65;33.00;100278.63;1760568;81;21692;-57
2021/06/06 11:58:19;;;;;;;3.10;1.35;;;;;;;30.92;31.70;100277.37;1822944;77;22230;-56
2021/06/06 12:01:06;;;;;;;4.03;1.42;;;;;;;31.13;31.09;100269.75;1819969;77;22186;-56
2021/06/06 12:03:55;;;;;;;2.08;1.50;;;;;;;31.18;31.02;100272.54;1793037;80;21552;-56
2021/06/06 12:06:29;;;;;;;2.45;1.40;;;;;;;31.06;30.40;100270.05;1834421;77;22203;-56
2021/06/06 12:09:25;;;;;;;2.27;1.60;;;;;;;30.96;31.41;100271.98;1800534;77;22267;-56
2021/06/06 12:12:13;;;;;;;2.27;1.50;;;;;;;31.03;30.54;100260.84;1814636;78;20553;-56
2021/06/06 12:14:59;;;;;;;2.58;1.60;;;;;;;31.04;30.59;100265.77;1820043;77;22252;-56
2021/06/06 12:17:33;;;;;;;8.90;2.25;;;;;;;30.52;30.41;100262.67;1830152;77;22211;-56
2021/06/06 12:20:11;;;;;;;7.33;1.67;;;;;;;30.12;31.82;100257.09;1824592;77;22171;-56
2021/06/06 12:22:49;;;;;;;3.58;1.90;;;;;;;29.83;31.57;100261.59;1848116;77;22257;-56
2021/06/06 12:25:28;;;;;;;2.98;1.77;;;;;;;29.81;31.24;100246.45;1833692;77;22144;-56
2021/06/06 12:28:22;;;;;;;2.37;1.47;;;;;;;29.92;31.05;100253.57;1810317;77;22370;-56
2021/06/06 12:31:10;;;;;;;2.83;1.52;;;;;;;29.87;31.36;100248.57;1818883;77;27999;-56